createdAt,value
2018-05-07T00:00:46.507Z,16.97
2018-05-07T00:03:15.130Z,15.87
2018-05-07T00:05:43.523Z,15.63
2018-05-07T00:08:11.950Z,15.23
2018-05-07T00:10:40.413Z,15.60
2018-05-07T00:13:08.815Z,14.30
2018-05-07T00:15:37.293Z,16.30
2018-05-07T00:18:05.946Z,15.40
2018-05-07T00:20:34.371Z,12.13
2018-05-07T00:23:02.760Z,13.53
2018-05-07T00:25:31.603Z,13.83
2018-05-07T00:28:00.072Z,14.90
2018-05-07T00:30:28.494Z,15.53
2018-05-07T00:32:57.244Z,17.27
2018-05-07T00:35:25.672Z,17.67
2018-05-07T00:37:54.099Z,15.43
2018-05-07T00:40:22.546Z,17.03
2018-05-07T00:42:50.969Z,16.87
2018-05-07T00:45:19.399Z,16.30
2018-05-07T00:47:48.034Z,16.07
2018-05-07T00:50:16.491Z,14.10
2018-05-07T00:52:44.893Z,15.70
2018-05-07T00:55:22.471Z,16.43
2018-05-07T00:57:50.887Z,18.33
2018-05-07T01:00:19.288Z,18.13
2018-05-07T01:02:47.738Z,20.47
2018-05-07T01:05:16.148Z,20.97
2018-05-07T01:07:44.695Z,19.03
2018-05-07T01:10:13.157Z,18.20
2018-05-07T01:12:41.601Z,17.23
2018-05-07T01:15:10.001Z,15.50
2018-05-07T01:17:38.831Z,15.00
2018-05-07T01:20:07.277Z,13.63
2018-05-07T01:22:35.719Z,15.27
2018-05-07T01:25:04.169Z,12.63
2018-05-07T01:27:32.619Z,14.20
2018-05-07T01:30:01.044Z,14.40
2018-05-07T01:32:29.833Z,13.73
2018-05-07T01:34:58.247Z,15.67
2018-05-07T01:37:26.647Z,15.67
2018-05-07T01:39:55.281Z,14.43
2018-05-07T01:42:23.720Z,16.00
2018-05-07T01:44:52.126Z,17.20
2018-05-07T01:47:21.041Z,19.20
2018-05-07T01:49:49.416Z,18.40
2018-05-07T01:52:17.819Z,19.13
2018-05-07T01:54:46.573Z,17.87
2018-05-07T01:57:14.993Z,19.87
2018-05-07T01:59:43.399Z,17.30
2018-05-07T02:02:11.848Z,17.33
2018-05-07T02:04:40.268Z,15.50
2018-05-07T02:07:08.684Z,14.93
2018-05-07T02:09:37.471Z,14.80
2018-05-07T02:12:05.907Z,13.13
2018-05-07T02:14:34.344Z,12.77
2018-05-07T02:17:02.951Z,11.97
2018-05-07T02:19:31.386Z,12.13
2018-05-07T02:21:59.871Z,12.27
2018-05-07T02:24:28.555Z,14.20
2018-05-07T02:26:56.980Z,12.37
2018-05-07T02:29:25.375Z,12.63
2018-05-07T02:31:53.827Z,13.60
2018-05-07T02:34:22.232Z,14.60
2018-05-07T02:36:50.644Z,14.57
2018-05-07T02:39:19.460Z,12.93
2018-05-07T02:41:47.856Z,12.57
2018-05-07T02:44:16.326Z,12.67
2018-05-07T02:46:45.008Z,14.17
2018-05-07T02:49:13.409Z,12.30
2018-05-07T02:51:41.799Z,9.93
2018-05-07T02:54:10.550Z,11.03
2018-05-07T02:56:38.960Z,13.07
2018-05-07T02:59:07.373Z,11.20
2018-05-07T03:01:35.990Z,11.80
2018-05-07T03:04:04.397Z,12.17
2018-05-07T03:06:32.810Z,11.03
2018-05-07T03:09:01.553Z,11.33
2018-05-07T03:11:29.991Z,10.83
2018-05-07T03:13:58.409Z,10.20
2018-05-07T03:16:27.218Z,10.43
2018-05-07T03:18:55.650Z,12.23
2018-05-07T03:21:24.063Z,10.37
2018-05-07T03:23:52.795Z,10.73
2018-05-07T03:26:21.214Z,10.80
2018-05-07T03:28:49.627Z,10.93
2018-05-07T03:31:18.411Z,10.87
2018-05-07T03:33:46.822Z,10.53
2018-05-07T03:36:15.228Z,11.57
2018-05-07T03:38:43.679Z,10.07
2018-05-07T03:41:12.107Z,12.00
2018-05-07T03:43:40.536Z,12.50
2018-05-07T03:46:09.027Z,9.87
2018-05-07T03:48:37.613Z,12.07
2018-05-07T03:51:06.014Z,16.67
2018-05-07T03:53:34.454Z,16.07
2018-05-07T03:56:02.878Z,12.37
2018-05-07T03:58:31.376Z,12.27
2018-05-07T04:00:59.827Z,17.67
2018-05-07T04:03:28.245Z,10.17
2018-05-07T04:05:56.731Z,15.63
2018-05-07T04:08:25.275Z,16.10
2018-05-07T04:10:53.707Z,17.83
2018-05-07T04:13:22.165Z,12.90
2018-05-07T04:15:50.584Z,12.63
2018-05-07T04:18:30.980Z,10.20
2018-05-07T04:21:11.296Z,11.60
2018-05-07T04:23:51.551Z,13.47
2018-05-07T04:26:19.974Z,13.37
2018-05-07T04:28:48.425Z,11.87
2018-05-07T04:31:16.851Z,14.30
2018-05-07T04:33:45.305Z,13.37
2018-05-07T04:36:13.787Z,11.50
2018-05-07T04:38:42.259Z,11.73
2018-05-07T04:41:10.730Z,9.77
2018-05-07T04:43:39.175Z,9.73
2018-05-07T04:46:07.834Z,8.03
2018-05-07T04:48:36.400Z,9.77
2018-05-07T04:51:04.839Z,9.20
2018-05-07T04:53:33.320Z,9.73
2018-05-07T04:56:01.725Z,9.03
2018-05-07T04:58:30.209Z,8.10
2018-05-07T05:00:58.622Z,7.87
2018-05-07T05:03:27.067Z,7.63
2018-05-07T05:05:55.459Z,7.90
2018-05-07T05:08:23.867Z,7.93
2018-05-07T05:10:52.316Z,8.40
2018-05-07T05:13:20.751Z,9.33
2018-05-07T05:15:49.136Z,8.27
2018-05-07T05:18:17.582Z,8.60
2018-05-07T05:20:46.024Z,9.33
2018-05-07T05:23:14.471Z,8.57
2018-05-07T05:25:42.872Z,7.93
2018-05-07T05:28:11.340Z,9.43
2018-05-07T05:30:39.763Z,8.67
2018-05-07T05:33:08.221Z,8.63
2018-05-07T05:35:36.674Z,8.20
2018-05-07T05:38:05.148Z,9.00
2018-05-07T05:40:33.544Z,9.90
2018-05-07T05:43:01.977Z,8.43
2018-05-07T05:45:30.415Z,9.53
2018-05-07T05:47:58.816Z,10.00
2018-05-07T05:50:27.319Z,10.77
2018-05-07T05:52:55.850Z,10.53
2018-05-07T05:55:24.392Z,9.93
2018-05-07T05:57:52.791Z,9.30
2018-05-07T06:00:21.215Z,10.37
2018-05-07T06:02:49.654Z,9.30
2018-05-07T06:05:18.092Z,10.20
2018-05-07T06:07:46.511Z,8.40
2018-05-07T06:10:15.022Z,10.40
2018-05-07T06:12:43.471Z,9.43
2018-05-07T06:15:11.898Z,9.30
2018-05-07T06:17:40.352Z,9.20
2018-05-07T06:20:08.788Z,8.17
2018-05-07T06:22:37.244Z,8.70
2018-05-07T06:25:05.655Z,8.53
2018-05-07T06:27:34.115Z,8.50
2018-05-07T06:30:02.555Z,8.73
2018-05-07T06:32:31.005Z,9.43
2018-05-07T06:34:59.424Z,10.43
2018-05-07T06:37:27.884Z,10.03
2018-05-07T06:39:56.328Z,9.83
2018-05-07T06:42:24.746Z,8.00
2018-05-07T06:44:53.174Z,8.67
2018-05-07T06:47:21.650Z,9.30
2018-05-07T06:49:50.117Z,7.90
2018-05-07T06:52:18.573Z,8.23
2018-05-07T06:54:47.021Z,7.73
2018-05-07T06:57:15.549Z,7.83
2018-05-07T06:59:44.115Z,7.90
2018-05-07T07:02:12.719Z,7.77
2018-05-07T07:04:41.055Z,7.57
2018-05-07T07:07:09.503Z,6.53
2018-05-07T07:09:37.893Z,6.70
2018-05-07T07:12:06.363Z,7.40
2018-05-07T07:14:34.771Z,6.13
2018-05-07T07:17:03.310Z,7.13
2018-05-07T07:19:31.814Z,6.50
2018-05-07T07:22:00.209Z,6.23
2018-05-07T07:24:28.647Z,4.93
2018-05-07T07:26:57.052Z,5.33
2018-05-07T07:29:25.438Z,5.23
2018-05-07T07:31:53.847Z,4.83
2018-05-07T07:34:22.267Z,5.37
2018-05-07T07:36:50.719Z,5.20
2018-05-07T07:39:19.138Z,5.73
2018-05-07T07:41:47.579Z,3.70
2018-05-07T07:44:16.032Z,5.27
2018-05-07T07:46:44.461Z,4.97
2018-05-07T07:49:12.896Z,5.60
2018-05-07T07:51:41.367Z,4.97
2018-05-07T07:54:09.843Z,4.73
2018-05-07T07:56:38.235Z,4.57
2018-05-07T07:59:06.635Z,4.80
2018-05-07T08:01:35.100Z,4.37
2018-05-07T08:04:03.489Z,4.77
2018-05-07T08:06:31.971Z,5.23
2018-05-07T08:09:00.391Z,5.43
2018-05-07T08:11:28.779Z,5.87
2018-05-07T08:13:57.244Z,5.20
2018-05-07T08:16:25.660Z,5.70
2018-05-07T08:18:54.139Z,5.77
2018-05-07T08:21:22.620Z,6.90
2018-05-07T08:23:51.057Z,5.47
2018-05-07T08:26:19.469Z,5.73
2018-05-07T08:28:47.911Z,5.63
2018-05-07T08:31:16.451Z,5.67
2018-05-07T08:33:44.892Z,5.97
2018-05-07T08:36:13.307Z,5.93
2018-05-07T08:38:41.755Z,4.73
2018-05-07T08:41:10.166Z,4.67
2018-05-07T08:43:38.623Z,5.23
2018-05-07T08:46:07.018Z,5.10
2018-05-07T08:48:35.580Z,5.60
2018-05-07T08:51:04.499Z,5.20
2018-05-07T08:53:32.904Z,6.10
2018-05-07T08:56:01.431Z,5.53
2018-05-07T08:58:29.873Z,5.40
2018-05-07T09:00:58.414Z,4.57
2018-05-07T09:03:27.048Z,5.10
2018-05-07T09:05:55.475Z,4.30
2018-05-07T09:08:23.889Z,5.13
2018-05-07T09:10:52.343Z,4.47
2018-05-07T09:13:20.743Z,4.83
2018-05-07T09:15:49.211Z,6.10
2018-05-07T09:18:17.679Z,5.10
2018-05-07T09:20:46.109Z,4.50
2018-05-07T09:23:14.655Z,4.97
2018-05-07T09:25:43.037Z,6.10
2018-05-07T09:28:11.452Z,4.53
2018-05-07T09:30:39.932Z,6.07
2018-05-07T09:33:08.329Z,6.07
2018-05-07T09:35:36.763Z,6.23
2018-05-07T09:38:05.200Z,5.23
2018-05-07T09:40:33.601Z,5.13
2018-05-07T09:43:02.125Z,4.63
2018-05-07T09:45:30.466Z,5.30
2018-05-07T09:47:58.906Z,6.07
2018-05-07T09:50:27.325Z,4.67
2018-05-07T09:52:55.881Z,5.40
2018-05-07T09:55:24.348Z,4.60
2018-05-07T09:58:02.568Z,5.07
2018-05-07T10:00:37.496Z,7.50
2018-05-07T10:03:05.952Z,5.20
2018-05-07T10:05:34.785Z,7.30
2018-05-07T10:08:03.243Z,5.57
2018-05-07T10:10:31.644Z,4.47
2018-05-07T10:13:00.099Z,4.87
2018-05-07T10:15:28.536Z,4.90
2018-05-07T10:17:56.969Z,5.40
2018-05-07T10:20:25.569Z,6.27
2018-05-07T10:22:54.007Z,4.33
2018-05-07T10:25:22.433Z,4.10
2018-05-07T10:27:50.866Z,4.77
2018-05-07T10:30:19.253Z,6.77
2018-05-07T10:32:47.696Z,45.10
2018-05-07T10:35:16.152Z,87.07
2018-05-07T10:37:44.596Z,109.97
2018-05-07T10:40:13.019Z,48.17
2018-05-07T10:42:41.486Z,26.23
2018-05-07T10:45:09.884Z,98.17
2018-05-07T10:47:38.432Z,99.37
2018-05-07T10:50:06.989Z,77.53
2018-05-07T10:52:35.415Z,72.73
2018-05-07T10:55:03.895Z,99.23
2018-05-07T10:57:32.316Z,88.50
2018-05-07T11:00:00.915Z,57.97
2018-05-07T11:02:29.362Z,88.23
2018-05-07T11:04:57.811Z,64.83
2018-05-07T11:07:26.376Z,46.00
2018-05-07T11:09:54.681Z,22.13
2018-05-07T11:12:23.079Z,32.53
2018-05-07T11:14:51.532Z,44.87
2018-05-07T11:17:19.931Z,63.70
2018-05-07T11:19:48.370Z,89.07
2018-05-07T11:22:16.830Z,104.10
2018-05-07T11:24:45.331Z,94.60
2018-05-07T11:27:13.794Z,104.63
2018-05-07T11:29:42.285Z,61.53
2018-05-07T11:32:10.725Z,95.53
2018-05-07T11:34:39.155Z,90.53
2018-05-07T11:37:11.979Z,103.67
2018-05-07T11:39:42.762Z,67.53
2018-05-07T11:42:12.111Z,101.53
2018-05-07T11:44:40.774Z,88.40
2018-05-07T11:47:09.330Z,92.53
2018-05-07T11:49:37.727Z,92.30
2018-05-07T11:52:06.203Z,90.90
2018-05-07T11:54:34.675Z,31.13
2018-05-07T11:57:03.171Z,81.40
2018-05-07T11:59:31.608Z,84.60
2018-05-07T12:02:00.018Z,62.27
2018-05-07T12:04:28.570Z,7.40
2018-05-07T12:06:57.145Z,8.10
2018-05-07T12:09:25.727Z,44.07
2018-05-07T12:11:54.127Z,57.93
2018-05-07T12:14:22.608Z,70.23
2018-05-07T12:16:51.033Z,42.60
2018-05-07T12:19:19.442Z,46.90
2018-05-07T12:21:48.154Z,8.17
2018-05-07T12:24:16.556Z,7.00
2018-05-07T12:26:45.020Z,7.17
2018-05-07T12:29:13.390Z,7.03
2018-05-07T12:31:41.904Z,4.97
2018-05-07T12:34:10.435Z,6.20
2018-05-07T12:36:38.907Z,6.07
2018-05-07T12:39:07.307Z,5.87
2018-05-07T12:41:35.719Z,5.60
2018-05-07T12:44:04.184Z,6.20
2018-05-07T12:46:32.571Z,6.00
2018-05-07T12:49:01.034Z,6.83
2018-05-07T12:51:29.443Z,6.17
2018-05-07T12:53:57.883Z,6.30
2018-05-07T12:56:26.396Z,6.13
2018-05-07T12:58:54.877Z,6.47
2018-05-07T13:01:23.297Z,7.10
2018-05-07T13:03:51.721Z,6.03
2018-05-07T13:06:20.168Z,6.07
2018-05-07T13:08:48.567Z,6.43
2018-05-07T13:11:16.959Z,6.68
2018-05-07T13:13:45.411Z,7.97
2018-05-07T13:16:13.831Z,6.90
2018-05-07T13:18:42.326Z,6.53
2018-05-07T13:21:10.775Z,6.35
2018-05-07T13:23:39.191Z,6.22
2018-05-07T13:26:07.950Z,6.40
2018-05-07T13:28:36.362Z,6.25
2018-05-07T13:31:04.795Z,6.45
2018-05-07T13:33:33.223Z,6.28
2018-05-07T13:36:01.663Z,6.57
2018-05-07T13:38:30.069Z,5.50
2018-05-07T13:40:58.540Z,7.07
2018-05-07T13:43:26.963Z,6.43
2018-05-07T13:45:55.417Z,6.87
2018-05-07T13:48:23.945Z,6.62
2018-05-07T13:50:52.369Z,7.20
2018-05-07T13:53:20.787Z,6.03
2018-05-07T13:55:49.202Z,6.68
2018-05-07T13:58:17.713Z,5.95
2018-05-07T14:00:46.156Z,8.30
2018-05-07T14:03:14.814Z,7.60
2018-05-07T14:05:43.261Z,6.55
2018-05-07T14:08:11.748Z,6.85
2018-05-07T14:10:40.340Z,7.35
2018-05-07T14:13:08.755Z,8.38
2018-05-07T14:15:37.187Z,7.03
2018-05-07T14:18:05.605Z,7.12
2018-05-07T14:20:34.098Z,6.40
2018-05-07T14:23:02.491Z,6.47
2018-05-07T14:25:30.971Z,7.30
2018-05-07T14:27:59.353Z,7.22
2018-05-07T14:30:27.885Z,7.28
2018-05-07T14:32:56.371Z,7.78
2018-05-07T14:35:24.827Z,7.97
2018-05-07T14:37:53.542Z,8.82
2018-05-07T14:40:22.239Z,7.47
2018-05-07T14:42:50.674Z,7.37
2018-05-07T14:45:19.165Z,7.40
2018-05-07T14:47:48.005Z,7.18
2018-05-07T14:50:16.476Z,7.72
2018-05-07T14:52:44.875Z,7.20
2018-05-07T14:55:13.651Z,7.85
2018-05-07T14:57:42.086Z,7.55
2018-05-07T15:00:10.494Z,8.40
2018-05-07T15:02:39.408Z,8.60
2018-05-07T15:05:07.836Z,6.37
2018-05-07T15:07:36.223Z,9.43
2018-05-07T15:10:04.989Z,7.72
2018-05-07T15:12:33.470Z,7.75
2018-05-07T15:15:01.895Z,7.75
2018-05-07T15:17:30.612Z,7.47
2018-05-07T15:19:59.069Z,7.18
2018-05-07T15:22:27.486Z,7.07
2018-05-07T15:24:56.243Z,7.45
2018-05-07T15:27:24.632Z,6.28
2018-05-07T15:29:53.060Z,7.57
2018-05-07T15:32:21.492Z,7.60
2018-05-07T15:34:49.978Z,7.45
2018-05-07T15:37:18.388Z,7.03
2018-05-07T15:39:46.792Z,6.65
2018-05-07T15:42:15.514Z,8.10
2018-05-07T15:44:43.900Z,6.68
2018-05-07T15:47:12.446Z,7.85
2018-05-07T15:49:41.237Z,8.82
2018-05-07T15:52:09.742Z,8.65
2018-05-07T15:54:38.175Z,7.85
2018-05-07T15:57:07.959Z,8.85
2018-05-07T15:59:36.391Z,8.48
2018-05-07T16:02:04.876Z,7.65
2018-05-07T16:04:33.325Z,7.47
2018-05-07T16:07:01.751Z,7.78
2018-05-07T16:09:30.143Z,6.35
2018-05-07T16:11:58.938Z,6.20
2018-05-07T16:14:27.389Z,6.07
2018-05-07T16:16:55.829Z,6.17
2018-05-07T16:19:24.615Z,6.33
2018-05-07T16:21:53.119Z,6.40
2018-05-07T16:24:21.553Z,6.03
2018-05-07T16:26:50.076Z,5.93
2018-05-07T16:29:18.547Z,5.93
2018-05-07T16:31:46.979Z,5.83
2018-05-07T16:34:15.416Z,5.77
2018-05-07T16:36:43.889Z,6.40
2018-05-07T16:39:12.436Z,6.13
2018-05-07T16:41:40.832Z,5.87
2018-05-07T16:44:09.435Z,5.00
2018-05-07T16:46:37.836Z,5.90
2018-05-07T16:49:06.375Z,5.03
2018-05-07T16:51:34.724Z,6.53
2018-05-07T16:54:03.097Z,5.90
2018-05-07T16:56:31.576Z,6.07
2018-05-07T16:59:00.028Z,5.67
2018-05-07T17:01:28.471Z,5.27
2018-05-07T17:03:56.923Z,6.00
2018-05-07T17:06:25.379Z,5.80
2018-05-07T17:08:53.837Z,6.07
2018-05-07T17:11:22.210Z,6.13
2018-05-07T17:13:50.768Z,6.13
2018-05-07T17:16:19.180Z,6.67
2018-05-07T17:18:47.571Z,5.87
2018-05-07T17:21:16.160Z,6.53
2018-05-07T17:23:44.605Z,6.60
2018-05-07T17:26:13.012Z,6.67
2018-05-07T17:28:41.482Z,6.00
2018-05-07T17:31:09.971Z,6.90
2018-05-07T17:33:38.458Z,7.17
2018-05-07T17:36:06.872Z,6.77
2018-05-07T17:38:35.305Z,7.13
2018-05-07T17:41:03.736Z,7.17
2018-05-07T17:43:32.135Z,50.70
2018-05-07T17:46:12.504Z,33.43
2018-05-07T17:48:52.821Z,30.37
2018-05-07T17:51:21.294Z,35.10
2018-05-07T17:53:49.804Z,27.73
2018-05-07T17:56:18.207Z,17.43
2018-05-07T17:58:46.679Z,13.10
2018-05-07T18:01:15.224Z,9.30
2018-05-07T18:03:44.975Z,12.40
2018-05-07T18:06:13.543Z,10.20
2018-05-07T18:08:41.953Z,9.13
2018-05-07T18:11:11.198Z,10.03
2018-05-07T18:13:39.717Z,9.30
2018-05-07T18:16:08.146Z,9.10
2018-05-07T18:18:36.560Z,9.37
2018-05-07T18:21:05.094Z,8.37
2018-05-07T18:23:33.560Z,8.90
2018-05-07T18:26:02.180Z,9.60
2018-05-07T18:28:30.556Z,9.07
2018-05-07T18:30:58.990Z,8.87
2018-05-07T18:33:27.416Z,7.90
2018-05-07T18:35:55.825Z,8.63
2018-05-07T18:38:24.466Z,9.63
2018-05-07T18:40:52.993Z,9.20
2018-05-07T18:43:21.460Z,9.83
2018-05-07T18:45:49.999Z,9.20
2018-05-07T18:48:18.722Z,10.47
2018-05-07T18:50:47.160Z,10.93
2018-05-07T18:53:16.315Z,10.53
2018-05-07T18:55:44.899Z,11.70
2018-05-07T18:58:14.180Z,12.43
2018-05-07T19:00:42.599Z,12.53
2018-05-07T19:03:11.104Z,12.10
2018-05-07T19:05:39.512Z,11.73
2018-05-07T19:08:07.926Z,12.10
2018-05-07T19:10:36.407Z,13.83
2018-05-07T19:13:04.845Z,10.97
2018-05-07T19:15:33.285Z,13.60
2018-05-07T19:18:02.848Z,13.70
2018-05-07T19:20:31.270Z,14.13
2018-05-07T19:22:59.743Z,15.53
2018-05-07T19:25:28.234Z,13.90
2018-05-07T19:27:56.788Z,12.77
2018-05-07T19:30:25.199Z,13.33
2018-05-07T19:32:53.604Z,12.03
2018-05-07T19:35:22.111Z,12.20
2018-05-07T19:37:50.628Z,13.37
2018-05-07T19:40:19.092Z,13.57
2018-05-07T19:42:47.546Z,11.90
2018-05-07T19:45:16.004Z,13.97
2018-05-07T19:47:44.409Z,15.87
2018-05-07T19:50:12.867Z,12.20
2018-05-07T19:52:41.401Z,11.47
2018-05-07T19:55:10.007Z,11.43
2018-05-07T19:57:38.477Z,12.23
2018-05-07T20:00:06.941Z,12.60
2018-05-07T20:02:35.347Z,13.23
2018-05-07T20:05:03.763Z,11.60
2018-05-07T20:07:32.594Z,12.07
2018-05-07T20:10:01.102Z,11.00
2018-05-07T20:12:29.655Z,11.67
2018-05-07T20:14:58.059Z,10.20
2018-05-07T20:17:26.510Z,10.10
2018-05-07T20:19:54.990Z,12.70
2018-05-07T20:22:23.548Z,10.63
2018-05-07T20:24:51.994Z,12.17
2018-05-07T20:27:20.456Z,12.83
2018-05-07T20:29:48.881Z,10.60
2018-05-07T20:32:17.405Z,10.57
2018-05-07T20:34:45.812Z,11.53
2018-05-07T20:37:14.228Z,11.70
2018-05-07T20:39:42.725Z,10.77
2018-05-07T20:42:11.101Z,13.23
2018-05-07T20:44:39.555Z,15.47
2018-05-07T20:47:08.014Z,11.90
2018-05-07T20:49:36.453Z,11.80
2018-05-07T20:52:05.096Z,12.07
2018-05-07T20:54:33.508Z,22.60
2018-05-07T20:57:01.963Z,30.17
2018-05-07T20:59:30.402Z,16.40
2018-05-07T21:01:58.902Z,13.37
2018-05-07T21:04:27.364Z,11.70
2018-05-07T21:06:55.813Z,11.47
2018-05-07T21:09:24.260Z,10.83
2018-05-07T21:11:52.718Z,12.13
2018-05-07T21:14:21.165Z,14.10
2018-05-07T21:16:49.577Z,10.60
2018-05-07T21:19:18.055Z,12.13
2018-05-07T21:21:46.495Z,11.73
2018-05-07T21:24:14.896Z,10.50
2018-05-07T21:26:43.384Z,11.27
2018-05-07T21:29:11.805Z,10.70
2018-05-07T21:31:40.258Z,11.60
2018-05-07T21:34:08.672Z,10.87
2018-05-07T21:36:37.128Z,11.10
2018-05-07T21:39:05.562Z,11.27
2018-05-07T21:41:34.054Z,11.50
2018-05-07T21:44:02.439Z,10.83
2018-05-07T21:46:30.928Z,10.93
2018-05-07T21:48:59.367Z,11.57
2018-05-07T21:51:27.836Z,9.93
2018-05-07T21:53:56.233Z,9.10
2018-05-07T21:56:24.715Z,11.10
2018-05-07T21:58:53.159Z,9.97
2018-05-07T22:01:21.599Z,9.97
2018-05-07T22:03:49.999Z,9.10
2018-05-07T22:06:18.421Z,9.23
2018-05-07T22:08:46.813Z,9.50
2018-05-07T22:11:15.241Z,10.70
2018-05-07T22:13:45.623Z,10.10
2018-05-07T22:16:14.069Z,9.73
2018-05-07T22:18:42.477Z,10.20
2018-05-07T22:21:10.925Z,9.40
2018-05-07T22:23:39.379Z,9.40
2018-05-07T22:26:07.843Z,9.53
2018-05-07T22:28:36.219Z,9.27
2018-05-07T22:31:04.668Z,8.73
2018-05-07T22:33:33.115Z,9.33
2018-05-07T22:36:01.560Z,11.07
2018-05-07T22:38:30.002Z,9.70
2018-05-07T22:40:58.424Z,10.17
2018-05-07T22:43:26.888Z,13.07
2018-05-07T22:45:55.435Z,13.70
2018-05-07T22:48:23.895Z,12.37
2018-05-07T22:50:52.366Z,11.40
2018-05-07T22:53:20.740Z,11.77
2018-05-07T22:55:49.248Z,9.47
2018-05-07T22:58:17.660Z,9.40
2018-05-07T23:00:46.111Z,9.57
2018-05-07T23:03:14.593Z,9.30
2018-05-07T23:05:43.023Z,8.93
2018-05-07T23:08:11.495Z,9.97
2018-05-07T23:10:39.962Z,8.57
2018-05-07T23:13:08.359Z,9.50
2018-05-07T23:15:36.803Z,8.13
2018-05-07T23:18:05.211Z,8.60
2018-05-07T23:20:33.668Z,8.27
2018-05-07T23:23:02.140Z,8.53
2018-05-07T23:25:30.564Z,8.67
2018-05-07T23:27:58.997Z,8.97
2018-05-07T23:30:27.396Z,7.00
2018-05-07T23:32:55.895Z,7.83
2018-05-07T23:35:24.306Z,7.67
2018-05-07T23:37:52.747Z,7.97
2018-05-07T23:40:21.179Z,7.67
2018-05-07T23:42:49.637Z,7.97
2018-05-07T23:45:18.122Z,7.63
2018-05-07T23:47:46.579Z,7.83
2018-05-07T23:50:14.984Z,8.77
2018-05-07T23:52:43.425Z,8.97
2018-05-07T23:55:11.810Z,7.87
2018-05-07T23:57:40.239Z,8.63
